sensor_id;sensor_type;location;lat;lon;timestamp;P1;P2;P0
43479;PMS5003;29067;35.492;-97.520;2022-08-01T00:02:02;16;11;
43479;PMS5003;29067;35.492;-97.520;2022-08-01T00:04:31;12;11;
43479;PMS5003;29067;35.492;-97.520;2022-08-01T00:06:59;7;7;
43479;PMS5003;29067;35.492;-97.520;2022-08-01T00:09:27;8;8;
43479;PMS5003;29067;35.492;-97.520;2022-08-01T00:11:55;11;9;
43479;PMS5003;29067;35.492;-97.520;2022-08-01T00:14:24;12;10;
43479;PMS5003;29067;35.492;-97.520;2022-08-01T00:16:52;11;8;
43479;PMS5003;29067;35.492;-97.520;2022-08-01T00:19:20;9;8;
43479;PMS5003;29067;35.492;-97.520;2022-08-01T00:21:47;11;10;
43479;PMS5003;29067;35.492;-97.520;2022-08-01T00:24:15;9;8;
43479;PMS5003;29067;35.492;-97.520;2022-08-01T00:26:43;13;10;
43479;PMS5003;29067;35.492;-97.520;2022-08-01T00:28:57;13;10;
43479;PMS5003;29067;35.492;-97.520;2022-08-01T00:31:26;9;9;
43479;PMS5003;29067;35.492;-97.520;2022-08-01T00:33:53;10;8;
43479;PMS5003;29067;35.492;-97.520;2022-08-01T00:36:21;10;8;
43479;PMS5003;29067;35.492;-97.520;2022-08-01T00:38:48;10;8;
43479;PMS5003;29067;35.492;-97.520;2022-08-01T00:41:16;9;9;
43479;PMS5003;29067;35.492;-97.520;2022-08-01T00:43:44;11;8;
43479;PMS5003;29067;35.492;-97.520;2022-08-01T00:46:13;9;7;
43479;PMS5003;29067;35.492;-97.520;2022-08-01T00:48:41;10;9;
43479;PMS5003;29067;35.492;-97.520;2022-08-01T00:51:09;10;9;
43479;PMS5003;29067;35.492;-97.520;2022-08-01T00:53:38;16;14;
43479;PMS5003;29067;35.492;-97.520;2022-08-01T00:56:07;14;13;
43479;PMS5003;29067;35.492;-97.520;2022-08-01T00:58:35;16;15;
43479;PMS5003;29067;35.492;-97.520;2022-08-01T01:01:04;22;20;
43479;PMS5003;29067;35.492;-97.520;2022-08-01T01:03:32;28;28;
43479;PMS5003;29067;35.492;-97.520;2022-08-01T01:06:05;49;47;
43479;PMS5003;29067;35.492;-97.520;2022-08-01T01:08:41;57;57;
43479;PMS5003;29067;35.492;-97.520;2022-08-01T01:11:20;42;42;
43479;PMS5003;29067;35.492;-97.520;2022-08-01T01:13:53;50;46;
43479;PMS5003;29067;35.492;-97.520;2022-08-01T01:16:28;75;75;
43479;PMS5003;29067;35.492;-97.520;2022-08-01T01:19:00;84;80;
43479;PMS5003;29067;35.492;-97.520;2022-08-01T01:21:34;24;22;
43479;PMS5003;29067;35.492;-97.520;2022-08-01T01:24:16;47;43;
43479;PMS5003;29067;35.492;-97.520;2022-08-01T01:26:52;74;72;
43479;PMS5003;29067;35.492;-97.520;2022-08-01T01:29:30;33;27;
43479;PMS5003;29067;35.492;-97.520;2022-08-01T01:32:04;85;83;
43479;PMS5003;29067;35.492;-97.520;2022-08-01T01:34:34;44;42;
43479;PMS5003;29067;35.492;-97.520;2022-08-01T01:37:04;43;39;
43479;PMS5003;29067;35.492;-97.520;2022-08-01T01:39:36;27;24;
43479;PMS5003;29067;35.492;-97.520;2022-08-01T01:42:08;48;47;
43479;PMS5003;29067;35.492;-97.520;2022-08-01T01:44:36;140;140;
43479;PMS5003;29067;35.492;-97.520;2022-08-01T01:47:05;29;23;
43479;PMS5003;29067;35.492;-97.520;2022-08-01T01:49:34;83;82;
43479;PMS5003;29067;35.492;-97.520;2022-08-01T01:52:03;82;80;
43479;PMS5003;29067;35.492;-97.520;2022-08-01T01:54:36;30;26;
43479;PMS5003;29067;35.492;-97.520;2022-08-01T01:57:07;41;37;
43479;PMS5003;29067;35.492;-97.520;2022-08-01T01:59:38;33;29;
43479;PMS5003;29067;35.492;-97.520;2022-08-01T02:02:07;37;33;
43479;PMS5003;29067;35.492;-97.520;2022-08-01T02:04:39;38;36;
43479;PMS5003;29067;35.492;-97.520;2022-08-01T02:07:09;8;7;
43479;PMS5003;29067;35.492;-97.520;2022-08-01T02:09:40;7;6;
43479;PMS5003;29067;35.492;-97.520;2022-08-01T02:12:10;12;11;
43479;PMS5003;29067;35.492;-97.520;2022-08-01T02:14:39;8;8;
43479;PMS5003;29067;35.492;-97.520;2022-08-01T02:17:09;8;8;
43479;PMS5003;29067;35.492;-97.520;2022-08-01T02:19:39;11;8;
43479;PMS5003;29067;35.492;-97.520;2022-08-01T02:22:09;11;9;
43479;PMS5003;29067;35.492;-97.520;2022-08-01T02:24:43;10;8;
43479;PMS5003;29067;35.492;-97.520;2022-08-01T02:27:24;9;9;
43479;PMS5003;29067;35.492;-97.520;2022-08-01T02:29:57;7;7;
43479;PMS5003;29067;35.492;-97.520;2022-08-01T02:32:30;12;9;
43479;PMS5003;29067;35.492;-97.520;2022-08-01T02:35:02;7;7;
43479;PMS5003;29067;35.492;-97.520;2022-08-01T02:37:34;8;6;
43479;PMS5003;29067;35.492;-97.520;2022-08-01T02:40:05;10;9;
43479;PMS5003;29067;35.492;-97.520;2022-08-01T02:42:35;11;8;
43479;PMS5003;29067;35.492;-97.520;2022-08-01T02:45:05;12;8;
43479;PMS5003;29067;35.492;-97.520;2022-08-01T02:47:35;32;25;
43479;PMS5003;29067;35.492;-97.520;2022-08-01T02:50:05;22;15;
43479;PMS5003;29067;35.492;-97.520;2022-08-01T02:52:34;27;19;
43479;PMS5003;29067;35.492;-97.520;2022-08-01T02:55:04;24;20;
43479;PMS5003;29067;35.492;-97.520;2022-08-01T02:57:34;15;8;
43479;PMS5003;29067;35.492;-97.520;2022-08-01T03:00:04;29;24;
43479;PMS5003;29067;35.492;-97.520;2022-08-01T03:02:33;29;23;
43479;PMS5003;29067;35.492;-97.520;2022-08-01T03:05:02;36;28;
43479;PMS5003;29067;35.492;-97.520;2022-08-01T03:07:32;26;22;
43479;PMS5003;29067;35.492;-97.520;2022-08-01T03:10:01;44;36;
43479;PMS5003;29067;35.492;-97.520;2022-08-01T03:12:30;31;28;
43479;PMS5003;29067;35.492;-97.520;2022-08-01T03:15:02;18;14;
43479;PMS5003;29067;35.492;-97.520;2022-08-01T03:17:32;14;10;
43479;PMS5003;29067;35.492;-97.520;2022-08-01T03:20:03;15;11;
43479;PMS5003;29067;35.492;-97.520;2022-08-01T03:22:33;15;12;
43479;PMS5003;29067;35.492;-97.520;2022-08-01T03:25:02;53;48;
43479;PMS5003;29067;35.492;-97.520;2022-08-01T03:27:31;49;43;
43479;PMS5003;29067;35.492;-97.520;2022-08-01T03:30:03;39;35;
43479;PMS5003;29067;35.492;-97.520;2022-08-01T03:32:33;16;12;
43479;PMS5003;29067;35.492;-97.520;2022-08-01T03:35:01;14;9;
43479;PMS5003;29067;35.492;-97.520;2022-08-01T03:37:31;17;12;
43479;PMS5003;29067;35.492;-97.520;2022-08-01T03:40:04;15;11;
43479;PMS5003;29067;35.492;-97.520;2022-08-01T03:42:37;24;21;
43479;PMS5003;29067;35.492;-97.520;2022-08-01T03:45:11;39;36;
43479;PMS5003;29067;35.492;-97.520;2022-08-01T03:47:55;18;14;
43479;PMS5003;29067;35.492;-97.520;2022-08-01T03:50:26;48;43;
43479;PMS5003;29067;35.492;-97.520;2022-08-01T03:52:55;37;32;
43479;PMS5003;29067;35.492;-97.520;2022-08-01T03:55:25;50;47;
43479;PMS5003;29067;35.492;-97.520;2022-08-01T03:57:54;46;41;
43479;PMS5003;29067;35.492;-97.520;2022-08-01T04:00:22;41;34;
43479;PMS5003;29067;35.492;-97.520;2022-08-01T04:02:51;24;21;
43479;PMS5003;29067;35.492;-97.520;2022-08-01T04:05:19;22;19;
43479;PMS5003;29067;35.492;-97.520;2022-08-01T04:07:49;21;18;
43479;PMS5003;29067;35.492;-97.520;2022-08-01T04:10:17;27;24;
43479;PMS5003;29067;35.492;-97.520;2022-08-01T04:12:44;61;55;
43479;PMS5003;29067;35.492;-97.520;2022-08-01T04:15:12;70;67;
43479;PMS5003;29067;35.492;-97.520;2022-08-01T04:17:40;79;75;
43479;PMS5003;29067;35.492;-97.520;2022-08-01T04:20:09;98;93;
43479;PMS5003;29067;35.492;-97.520;2022-08-01T04:22:38;141;137;
43479;PMS5003;29067;35.492;-97.520;2022-08-01T04:25:09;104;100;
43479;PMS5003;29067;35.492;-97.520;2022-08-01T04:27:44;103;100;
43479;PMS5003;29067;35.492;-97.520;2022-08-01T04:30:15;75;70;
43479;PMS5003;29067;35.492;-97.520;2022-08-01T04:32:44;66;62;
43479;PMS5003;29067;35.492;-97.520;2022-08-01T04:35:13;67;59;
43479;PMS5003;29067;35.492;-97.520;2022-08-01T04:37:45;65;60;
43479;PMS5003;29067;35.492;-97.520;2022-08-01T04:40:16;50;46;
43479;PMS5003;29067;35.492;-97.520;2022-08-01T04:42:45;45;41;
43479;PMS5003;29067;35.492;-97.520;2022-08-01T04:45:12;37;32;
43479;PMS5003;29067;35.492;-97.520;2022-08-01T04:47:40;44;39;
43479;PMS5003;29067;35.492;-97.520;2022-08-01T04:50:10;50;43;
43479;PMS5003;29067;35.492;-97.520;2022-08-01T04:52:39;54;51;
43479;PMS5003;29067;35.492;-97.520;2022-08-01T04:55:08;52;48;
43479;PMS5003;29067;35.492;-97.520;2022-08-01T04:57:37;39;34;
43479;PMS5003;29067;35.492;-97.520;2022-08-01T05:00:09;40;35;
43479;PMS5003;29067;35.492;-97.520;2022-08-01T05:02:38;43;38;
43479;PMS5003;29067;35.492;-97.520;2022-08-01T05:05:07;35;29;
43479;PMS5003;29067;35.492;-97.520;2022-08-01T05:07:35;38;35;
43479;PMS5003;29067;35.492;-97.520;2022-08-01T05:10:03;44;36;
43479;PMS5003;29067;35.492;-97.520;2022-08-01T05:12:32;57;49;
43479;PMS5003;29067;35.492;-97.520;2022-08-01T05:15:00;58;52;
43479;PMS5003;29067;35.492;-97.520;2022-08-01T05:17:28;29;24;
43479;PMS5003;29067;35.492;-97.520;2022-08-01T05:19:55;39;31;
43479;PMS5003;29067;35.492;-97.520;2022-08-01T05:22:24;54;49;
43479;PMS5003;29067;35.492;-97.520;2022-08-01T05:24:52;45;41;
43479;PMS5003;29067;35.492;-97.520;2022-08-01T05:27:20;32;28;
43479;PMS5003;29067;35.492;-97.520;2022-08-01T05:29:47;69;66;
43479;PMS5003;29067;35.492;-97.520;2022-08-01T05:32:15;92;86;
43479;PMS5003;29067;35.492;-97.520;2022-08-01T05:34:43;65;59;
43479;PMS5003;29067;35.492;-97.520;2022-08-01T05:37:11;44;39;
43479;PMS5003;29067;35.492;-97.520;2022-08-01T05:39:39;34;29;
43479;PMS5003;29067;35.492;-97.520;2022-08-01T05:42:07;33;26;
43479;PMS5003;29067;35.492;-97.520;2022-08-01T05:44:34;30;26;
43479;PMS5003;29067;35.492;-97.520;2022-08-01T05:47:02;35;30;
43479;PMS5003;29067;35.492;-97.520;2022-08-01T05:49:30;41;36;
43479;PMS5003;29067;35.492;-97.520;2022-08-01T05:51:58;40;37;
43479;PMS5003;29067;35.492;-97.520;2022-08-01T05:54:26;40;33;
43479;PMS5003;29067;35.492;-97.520;2022-08-01T05:56:54;31;28;
43479;PMS5003;29067;35.492;-97.520;2022-08-01T05:59:22;37;32;
43479;PMS5003;29067;35.492;-97.520;2022-08-01T06:01:50;21;15;
43479;PMS5003;29067;35.492;-97.520;2022-08-01T06:04:18;19;15;
43479;PMS5003;29067;35.492;-97.520;2022-08-01T06:06:46;14;9;
43479;PMS5003;29067;35.492;-97.520;2022-08-01T06:09:15;18;14;
43479;PMS5003;29067;35.492;-97.520;2022-08-01T06:11:43;63;62;
43479;PMS5003;29067;35.492;-97.520;2022-08-01T06:14:12;24;19;
43479;PMS5003;29067;35.492;-97.520;2022-08-01T06:16:39;23;19;
43479;PMS5003;29067;35.492;-97.520;2022-08-01T06:19:08;10;7;
43479;PMS5003;29067;35.492;-97.520;2022-08-01T06:21:35;7;5;
43479;PMS5003;29067;35.492;-97.520;2022-08-01T06:24:04;9;8;
43479;PMS5003;29067;35.492;-97.520;2022-08-01T06:26:32;8;8;
43479;PMS5003;29067;35.492;-97.520;2022-08-01T06:29:00;8;7;
43479;PMS5003;29067;35.492;-97.520;2022-08-01T06:31:28;7;5;
43479;PMS5003;29067;35.492;-97.520;2022-08-01T06:33:55;6;5;
43479;PMS5003;29067;35.492;-97.520;2022-08-01T06:36:22;6;5;
43479;PMS5003;29067;35.492;-97.520;2022-08-01T06:38:50;9;7;
43479;PMS5003;29067;35.492;-97.520;2022-08-01T06:41:17;8;6;
43479;PMS5003;29067;35.492;-97.520;2022-08-01T06:43:45;8;6;
43479;PMS5003;29067;35.492;-97.520;2022-08-01T06:46:12;7;5;
43479;PMS5003;29067;35.492;-97.520;2022-08-01T06:48:40;7;6;
43479;PMS5003;29067;35.492;-97.520;2022-08-01T06:51:08;12;5;
43479;PMS5003;29067;35.492;-97.520;2022-08-01T06:53:36;10;7;
43479;PMS5003;29067;35.492;-97.520;2022-08-01T06:56:05;7;6;
43479;PMS5003;29067;35.492;-97.520;2022-08-01T06:58:33;10;7;
43479;PMS5003;29067;35.492;-97.520;2022-08-01T07:01:01;8;7;
43479;PMS5003;29067;35.492;-97.520;2022-08-01T07:03:29;8;6;
43479;PMS5003;29067;35.492;-97.520;2022-08-01T07:05:56;8;7;
43479;PMS5003;29067;35.492;-97.520;2022-08-01T07:08:26;6;5;
43479;PMS5003;29067;35.492;-97.520;2022-08-01T07:10:54;6;4;
43479;PMS5003;29067;35.492;-97.520;2022-08-01T07:13:22;6;4;
43479;PMS5003;29067;35.492;-97.520;2022-08-01T07:15:49;6;5;
43479;PMS5003;29067;35.492;-97.520;2022-08-01T07:18:18;5;5;
43479;PMS5003;29067;35.492;-97.520;2022-08-01T07:20:46;12;7;
43479;PMS5003;29067;35.492;-97.520;2022-08-01T07:23:14;4;4;
43479;PMS5003;29067;35.492;-97.520;2022-08-01T07:25:43;6;5;
43479;PMS5003;29067;35.492;-97.520;2022-08-01T07:28:10;6;6;
43479;PMS5003;29067;35.492;-97.520;2022-08-01T07:30:39;8;8;
43479;PMS5003;29067;35.492;-97.520;2022-08-01T07:33:07;6;5;
43479;PMS5003;29067;35.492;-97.520;2022-08-01T07:35:35;7;5;
43479;PMS5003;29067;35.492;-97.520;2022-08-01T07:38:04;6;6;
43479;PMS5003;29067;35.492;-97.520;2022-08-01T07:40:32;9;7;
43479;PMS5003;29067;35.492;-97.520;2022-08-01T07:43:00;8;7;
43479;PMS5003;29067;35.492;-97.520;2022-08-01T07:45:29;7;5;
43479;PMS5003;29067;35.492;-97.520;2022-08-01T07:48:01;7;5;
43479;PMS5003;29067;35.492;-97.520;2022-08-01T07:50:30;4;4;
43479;PMS5003;29067;35.492;-97.520;2022-08-01T07:52:58;8;6;
43479;PMS5003;29067;35.492;-97.520;2022-08-01T07:55:26;5;5;
43479;PMS5003;29067;35.492;-97.520;2022-08-01T07:57:55;7;5;
43479;PMS5003;29067;35.492;-97.520;2022-08-01T08:00:24;7;5;
43479;PMS5003;29067;35.492;-97.520;2022-08-01T08:02:52;5;4;
43479;PMS5003;29067;35.492;-97.520;2022-08-01T08:05:20;6;6;
43479;PMS5003;29067;35.492;-97.520;2022-08-01T08:07:49;5;4;
43479;PMS5003;29067;35.492;-97.520;2022-08-01T08:10:18;5;4;
43479;PMS5003;29067;35.492;-97.520;2022-08-01T08:12:46;6;6;
43479;PMS5003;29067;35.492;-97.520;2022-08-01T08:15:14;11;8;
43479;PMS5003;29067;35.492;-97.520;2022-08-01T08:17:42;5;3;
43479;PMS5003;29067;35.492;-97.520;2022-08-01T08:20:10;7;5;
43479;PMS5003;29067;35.492;-97.520;2022-08-01T08:22:38;6;5;
43479;PMS5003;29067;35.492;-97.520;2022-08-01T08:25:06;4;4;
43479;PMS5003;29067;35.492;-97.520;2022-08-01T08:27:35;7;6;
43479;PMS5003;29067;35.492;-97.520;2022-08-01T08:30:04;12;6;
43479;PMS5003;29067;35.492;-97.520;2022-08-01T08:32:33;6;5;
43479;PMS5003;29067;35.492;-97.520;2022-08-01T08:35:02;4;4;
43479;PMS5003;29067;35.492;-97.520;2022-08-01T08:37:31;8;7;
43479;PMS5003;29067;35.492;-97.520;2022-08-01T08:39:59;7;5;
43479;PMS5003;29067;35.492;-97.520;2022-08-01T08:42:26;6;5;
43479;PMS5003;29067;35.492;-97.520;2022-08-01T08:44:54;5;4;
43479;PMS5003;29067;35.492;-97.520;2022-08-01T08:47:23;8;6;
43479;PMS5003;29067;35.492;-97.520;2022-08-01T08:49:52;8;6;
43479;PMS5003;29067;35.492;-97.520;2022-08-01T08:52:22;9;6;
43479;PMS5003;29067;35.492;-97.520;2022-08-01T08:54:50;8;7;
43479;PMS5003;29067;35.492;-97.520;2022-08-01T08:57:19;8;5;
43479;PMS5003;29067;35.492;-97.520;2022-08-01T08:59:47;8;7;
43479;PMS5003;29067;35.492;-97.520;2022-08-01T09:02:16;7;6;
43479;PMS5003;29067;35.492;-97.520;2022-08-01T09:04:44;6;5;
43479;PMS5003;29067;35.492;-97.520;2022-08-01T09:07:14;8;5;
43479;PMS5003;29067;35.492;-97.520;2022-08-01T09:09:42;5;4;
43479;PMS5003;29067;35.492;-97.520;2022-08-01T09:12:12;5;5;
43479;PMS5003;29067;35.492;-97.520;2022-08-01T09:14:45;6;6;
43479;PMS5003;29067;35.492;-97.520;2022-08-01T09:17:14;7;5;
43479;PMS5003;29067;35.492;-97.520;2022-08-01T09:19:42;7;6;
43479;PMS5003;29067;35.492;-97.520;2022-08-01T09:22:11;9;6;
43479;PMS5003;29067;35.492;-97.520;2022-08-01T09:24:40;4;4;
43479;PMS5003;29067;35.492;-97.520;2022-08-01T09:27:17;7;5;
43479;PMS5003;29067;35.492;-97.520;2022-08-01T09:29:46;7;6;
43479;PMS5003;29067;35.492;-97.520;2022-08-01T09:32:13;4;3;
43479;PMS5003;29067;35.492;-97.520;2022-08-01T09:34:41;8;6;
43479;PMS5003;29067;35.492;-97.520;2022-08-01T09:37:10;7;6;
43479;PMS5003;29067;35.492;-97.520;2022-08-01T09:39:37;5;5;
43479;PMS5003;29067;35.492;-97.520;2022-08-01T09:42:18;6;5;
43479;PMS5003;29067;35.492;-97.520;2022-08-01T09:44:49;4;4;
43479;PMS5003;29067;35.492;-97.520;2022-08-01T09:47:17;8;6;
43479;PMS5003;29067;35.492;-97.520;2022-08-01T09:49:52;4;4;
43479;PMS5003;29067;35.492;-97.520;2022-08-01T09:52:21;4;4;
43479;PMS5003;29067;35.492;-97.520;2022-08-01T09:54:51;8;6;
43479;PMS5003;29067;35.492;-97.520;2022-08-01T09:57:21;8;5;
43479;PMS5003;29067;35.492;-97.520;2022-08-01T09:59:49;6;6;
43479;PMS5003;29067;35.492;-97.520;2022-08-01T10:02:28;7;5;
43479;PMS5003;29067;35.492;-97.520;2022-08-01T10:05:00;7;4;
43479;PMS5003;29067;35.492;-97.520;2022-08-01T10:07:29;8;6;
43479;PMS5003;29067;35.492;-97.520;2022-08-01T10:09:59;9;6;
43479;PMS5003;29067;35.492;-97.520;2022-08-01T10:12:38;6;5;
43479;PMS5003;29067;35.492;-97.520;2022-08-01T10:15:07;7;6;
43479;PMS5003;29067;35.492;-97.520;2022-08-01T10:17:36;8;5;
43479;PMS5003;29067;35.492;-97.520;2022-08-01T10:20:08;6;5;
43479;PMS5003;29067;35.492;-97.520;2022-08-01T10:22:36;8;7;
43479;PMS5003;29067;35.492;-97.520;2022-08-01T10:25:05;7;6;
43479;PMS5003;29067;35.492;-97.520;2022-08-01T10:27:33;6;4;
43479;PMS5003;29067;35.492;-97.520;2022-08-01T10:30:04;5;5;
43479;PMS5003;29067;35.492;-97.520;2022-08-01T10:32:34;7;6;
43479;PMS5003;29067;35.492;-97.520;2022-08-01T10:35:04;6;4;
43479;PMS5003;29067;35.492;-97.520;2022-08-01T10:37:34;8;5;
43479;PMS5003;29067;35.492;-97.520;2022-08-01T10:40:02;9;5;
43479;PMS5003;29067;35.492;-97.520;2022-08-01T10:42:31;5;4;
43479;PMS5003;29067;35.492;-97.520;2022-08-01T10:45:00;5;5;
43479;PMS5003;29067;35.492;-97.520;2022-08-01T10:47:30;6;5;
43479;PMS5003;29067;35.492;-97.520;2022-08-01T10:50:07;6;4;
43479;PMS5003;29067;35.492;-97.520;2022-08-01T10:52:55;8;7;
43479;PMS5003;29067;35.492;-97.520;2022-08-01T10:55:44;10;8;
43479;PMS5003;29067;35.492;-97.520;2022-08-01T10:58:14;7;5;
43479;PMS5003;29067;35.492;-97.520;2022-08-01T11:03:01;6;5;
43479;PMS5003;29067;35.492;-97.520;2022-08-01T11:05:31;6;5;
43479;PMS5003;29067;35.492;-97.520;2022-08-01T11:08:01;8;8;
43479;PMS5003;29067;35.492;-97.520;2022-08-01T11:10:37;5;5;
43479;PMS5003;29067;35.492;-97.520;2022-08-01T11:13:06;5;4;
43479;PMS5003;29067;35.492;-97.520;2022-08-01T11:15:34;9;7;
43479;PMS5003;29067;35.492;-97.520;2022-08-01T11:18:03;7;6;
43479;PMS5003;29067;35.492;-97.520;2022-08-01T11:20:56;8;5;
43479;PMS5003;29067;35.492;-97.520;2022-08-01T11:23:26;7;5;
43479;PMS5003;29067;35.492;-97.520;2022-08-01T11:26:11;7;5;
43479;PMS5003;29067;35.492;-97.520;2022-08-01T11:28:42;5;5;
43479;PMS5003;29067;35.492;-97.520;2022-08-01T11:31:28;5;5;
43479;PMS5003;29067;35.492;-97.520;2022-08-01T11:33:58;6;4;
43479;PMS5003;29067;35.492;-97.520;2022-08-01T11:36:27;8;6;
43479;PMS5003;29067;35.492;-97.520;2022-08-01T11:39:12;6;5;
43479;PMS5003;29067;35.492;-97.520;2022-08-01T11:41:42;10;5;
43479;PMS5003;29067;35.492;-97.520;2022-08-01T11:44:12;9;6;
43479;PMS5003;29067;35.492;-97.520;2022-08-01T11:46:48;8;6;
43479;PMS5003;29067;35.492;-97.520;2022-08-01T11:49:22;7;6;
43479;PMS5003;29067;35.492;-97.520;2022-08-01T11:52:01;7;7;
43479;PMS5003;29067;35.492;-97.520;2022-08-01T11:54:32;8;7;
43479;PMS5003;29067;35.492;-97.520;2022-08-01T11:57:02;9;7;
43479;PMS5003;29067;35.492;-97.520;2022-08-01T11:59:36;8;6;
43479;PMS5003;29067;35.492;-97.520;2022-08-01T12:02:14;11;7;
43479;PMS5003;29067;35.492;-97.520;2022-08-01T12:04:45;7;7;
43479;PMS5003;29067;35.492;-97.520;2022-08-01T12:07:16;8;7;
43479;PMS5003;29067;35.492;-97.520;2022-08-01T12:09:44;11;8;
43479;PMS5003;29067;35.492;-97.520;2022-08-01T12:12:14;7;7;
43479;PMS5003;29067;35.492;-97.520;2022-08-01T12:14:45;10;9;
43479;PMS5003;29067;35.492;-97.520;2022-08-01T12:17:19;10;8;
43479;PMS5003;29067;35.492;-97.520;2022-08-01T12:19:53;9;8;
43479;PMS5003;29067;35.492;-97.520;2022-08-01T12:22:22;8;7;
43479;PMS5003;29067;35.492;-97.520;2022-08-01T12:24:50;7;6;
43479;PMS5003;29067;35.492;-97.520;2022-08-01T12:27:27;12;9;
43479;PMS5003;29067;35.492;-97.520;2022-08-01T12:29:57;6;5;
43479;PMS5003;29067;35.492;-97.520;2022-08-01T12:32:26;7;6;
43479;PMS5003;29067;35.492;-97.520;2022-08-01T12:34:56;8;6;
43479;PMS5003;29067;35.492;-97.520;2022-08-01T12:37:27;7;5;
43479;PMS5003;29067;35.492;-97.520;2022-08-01T12:39:56;5;4;
43479;PMS5003;29067;35.492;-97.520;2022-08-01T12:42:24;7;5;
43479;PMS5003;29067;35.492;-97.520;2022-08-01T12:44:53;6;5;
43479;PMS5003;29067;35.492;-97.520;2022-08-01T12:47:21;8;7;
43479;PMS5003;29067;35.492;-97.520;2022-08-01T12:49:50;9;6;
43479;PMS5003;29067;35.492;-97.520;2022-08-01T12:52:19;6;6;
43479;PMS5003;29067;35.492;-97.520;2022-08-01T12:55:04;6;5;
43479;PMS5003;29067;35.492;-97.520;2022-08-01T12:57:36;6;5;
43479;PMS5003;29067;35.492;-97.520;2022-08-01T13:00:07;7;6;
43479;PMS5003;29067;35.492;-97.520;2022-08-01T13:02:37;6;5;
43479;PMS5003;29067;35.492;-97.520;2022-08-01T13:05:07;5;4;
43479;PMS5003;29067;35.492;-97.520;2022-08-01T13:07:37;7;5;
43479;PMS5003;29067;35.492;-97.520;2022-08-01T13:10:06;8;7;
43479;PMS5003;29067;35.492;-97.520;2022-08-01T13:12:35;5;4;
43479;PMS5003;29067;35.492;-97.520;2022-08-01T13:15:37;7;5;
43479;PMS5003;29067;35.492;-97.520;2022-08-01T13:18:22;6;5;
43479;PMS5003;29067;35.492;-97.520;2022-08-01T13:21:07;5;5;
43479;PMS5003;29067;35.492;-97.520;2022-08-01T13:23:36;8;5;
43479;PMS5003;29067;35.492;-97.520;2022-08-01T13:26:04;8;7;
43479;PMS5003;29067;35.492;-97.520;2022-08-01T13:28:32;11;7;
43479;PMS5003;29067;35.492;-97.520;2022-08-01T13:31:02;5;4;
43479;PMS5003;29067;35.492;-97.520;2022-08-01T13:33:39;9;5;
43479;PMS5003;29067;35.492;-97.520;2022-08-01T13:36:08;5;5;
43479;PMS5003;29067;35.492;-97.520;2022-08-01T13:38:37;10;7;
43479;PMS5003;29067;35.492;-97.520;2022-08-01T13:41:05;7;4;
43479;PMS5003;29067;35.492;-97.520;2022-08-01T13:43:34;6;5;
43479;PMS5003;29067;35.492;-97.520;2022-08-01T13:46:01;7;5;
43479;PMS5003;29067;35.492;-97.520;2022-08-01T13:48:31;8;7;
43479;PMS5003;29067;35.492;-97.520;2022-08-01T13:50:59;5;4;
43479;PMS5003;29067;35.492;-97.520;2022-08-01T13:53:28;3;3;
43479;PMS5003;29067;35.492;-97.520;2022-08-01T13:55:56;4;4;
43479;PMS5003;29067;35.492;-97.520;2022-08-01T13:58:24;7;5;
43479;PMS5003;29067;35.492;-97.520;2022-08-01T14:00:51;8;8;
43479;PMS5003;29067;35.492;-97.520;2022-08-01T14:03:19;9;8;
43479;PMS5003;29067;35.492;-97.520;2022-08-01T14:05:46;8;6;
43479;PMS5003;29067;35.492;-97.520;2022-08-01T14:08:15;9;8;
43479;PMS5003;29067;35.492;-97.520;2022-08-01T14:10:43;9;6;
43479;PMS5003;29067;35.492;-97.520;2022-08-01T14:13:11;7;6;
43479;PMS5003;29067;35.492;-97.520;2022-08-01T14:15:38;8;5;
43479;PMS5003;29067;35.492;-97.520;2022-08-01T14:18:06;8;5;
43479;PMS5003;29067;35.492;-97.520;2022-08-01T14:20:35;6;4;
43479;PMS5003;29067;35.492;-97.520;2022-08-01T14:23:04;3;3;
43479;PMS5003;29067;35.492;-97.520;2022-08-01T14:25:31;8;5;
43479;PMS5003;29067;35.492;-97.520;2022-08-01T14:27:59;6;4;
43479;PMS5003;29067;35.492;-97.520;2022-08-01T14:30:26;9;7;
43479;PMS5003;29067;35.492;-97.520;2022-08-01T14:32:54;9;8;
43479;PMS5003;29067;35.492;-97.520;2022-08-01T14:35:22;5;4;
43479;PMS5003;29067;35.492;-97.520;2022-08-01T14:37:51;7;6;
43479;PMS5003;29067;35.492;-97.520;2022-08-01T14:40:19;8;7;
43479;PMS5003;29067;35.492;-97.520;2022-08-01T14:42:48;8;6;
43479;PMS5003;29067;35.492;-97.520;2022-08-01T14:45:15;5;5;
43479;PMS5003;29067;35.492;-97.520;2022-08-01T14:47:43;7;6;
43479;PMS5003;29067;35.492;-97.520;2022-08-01T14:50:11;6;5;
43479;PMS5003;29067;35.492;-97.520;2022-08-01T14:52:40;8;6;
43479;PMS5003;29067;35.492;-97.520;2022-08-01T14:55:10;8;7;
43479;PMS5003;29067;35.492;-97.520;2022-08-01T14:57:39;5;5;
43479;PMS5003;29067;35.492;-97.520;2022-08-01T15:00:08;12;7;
43479;PMS5003;29067;35.492;-97.520;2022-08-01T15:02:36;7;5;
43479;PMS5003;29067;35.492;-97.520;2022-08-01T15:05:05;5;4;
43479;PMS5003;29067;35.492;-97.520;2022-08-01T15:07:33;9;6;
43479;PMS5003;29067;35.492;-97.520;2022-08-01T15:10:02;5;5;
43479;PMS5003;29067;35.492;-97.520;2022-08-01T15:12:31;7;6;
43479;PMS5003;29067;35.492;-97.520;2022-08-01T15:14:59;6;4;
43479;PMS5003;29067;35.492;-97.520;2022-08-01T15:17:29;9;7;
43479;PMS5003;29067;35.492;-97.520;2022-08-01T15:19:59;7;6;
43479;PMS5003;29067;35.492;-97.520;2022-08-01T15:22:30;6;5;
43479;PMS5003;29067;35.492;-97.520;2022-08-01T15:24:59;13;10;
43479;PMS5003;29067;35.492;-97.520;2022-08-01T15:27:28;9;7;
43479;PMS5003;29067;35.492;-97.520;2022-08-01T15:29:56;11;10;
43479;PMS5003;29067;35.492;-97.520;2022-08-01T15:32:24;12;11;
43479;PMS5003;29067;35.492;-97.520;2022-08-01T15:34:51;8;8;
43479;PMS5003;29067;35.492;-97.520;2022-08-01T15:37:19;6;5;
43479;PMS5003;29067;35.492;-97.520;2022-08-01T15:39:47;7;5;
43479;PMS5003;29067;35.492;-97.520;2022-08-01T15:42:16;9;6;
43479;PMS5003;29067;35.492;-97.520;2022-08-01T15:44:44;4;3;
43479;PMS5003;29067;35.492;-97.520;2022-08-01T15:47:12;3;3;
43479;PMS5003;29067;35.492;-97.520;2022-08-01T15:49:39;7;4;
43479;PMS5003;29067;35.492;-97.520;2022-08-01T15:52:08;7;4;
43479;PMS5003;29067;35.492;-97.520;2022-08-01T15:54:36;6;4;
43479;PMS5003;29067;35.492;-97.520;2022-08-01T15:57:05;8;6;
43479;PMS5003;29067;35.492;-97.520;2022-08-01T15:59:32;6;4;
43479;PMS5003;29067;35.492;-97.520;2022-08-01T16:02:00;6;5;
43479;PMS5003;29067;35.492;-97.520;2022-08-01T16:04:27;4;4;
43479;PMS5003;29067;35.492;-97.520;2022-08-01T16:06:55;3;3;
43479;PMS5003;29067;35.492;-97.520;2022-08-01T16:09:23;5;4;
43479;PMS5003;29067;35.492;-97.520;2022-08-01T16:11:51;9;5;
43479;PMS5003;29067;35.492;-97.520;2022-08-01T16:14:19;5;5;
43479;PMS5003;29067;35.492;-97.520;2022-08-01T16:16:47;4;3;
43479;PMS5003;29067;35.492;-97.520;2022-08-01T16:19:16;8;6;
43479;PMS5003;29067;35.492;-97.520;2022-08-01T16:21:44;6;5;
43479;PMS5003;29067;35.492;-97.520;2022-08-01T16:24:12;5;5;
43479;PMS5003;29067;35.492;-97.520;2022-08-01T16:26:41;6;5;